createdAt,value
2023-03-04T00:02:05.778Z,78.36
2023-03-04T00:04:32.293Z,78.27
2023-03-04T00:06:58.816Z,78.41
2023-03-04T00:09:25.629Z,78.50
2023-03-04T00:11:52.081Z,78.32
2023-03-04T00:14:18.723Z,78.32
2023-03-04T00:16:45.540Z,78.32
2023-03-04T00:19:11.934Z,78.43
2023-03-04T00:21:38.830Z,78.44
2023-03-04T00:24:06.238Z,78.44
2023-03-04T00:26:32.801Z,78.47
2023-03-04T00:28:59.437Z,78.51
2023-03-04T00:31:25.920Z,78.43
2023-03-04T00:33:52.313Z,78.57
2023-03-04T00:36:19.172Z,78.42
2023-03-04T00:38:45.894Z,78.65
2023-03-04T00:41:12.426Z,78.42
2023-03-04T00:43:39.203Z,78.46
2023-03-04T00:46:06.418Z,78.31
2023-03-04T00:48:32.904Z,78.33
2023-03-04T00:50:59.544Z,78.56
2023-03-04T00:53:26.174Z,78.59
2023-03-04T00:55:52.485Z,78.57
2023-03-04T00:58:19.195Z,78.60
2023-03-04T01:00:45.579Z,78.60
2023-03-04T01:03:12.040Z,78.53
2023-03-04T01:05:39.047Z,78.59
2023-03-04T01:08:05.738Z,78.56
2023-03-04T01:10:32.574Z,78.63
2023-03-04T01:12:59.263Z,78.65
2023-03-04T01:15:26.168Z,78.68
2023-03-04T01:17:52.744Z,78.61
2023-03-04T01:20:19.522Z,78.62
2023-03-04T01:22:46.094Z,78.72
2023-03-04T01:25:12.759Z,78.67
2023-03-04T01:27:39.457Z,78.68
2023-03-04T01:30:06.387Z,78.42
2023-03-04T01:32:32.856Z,78.36
2023-03-04T01:34:59.456Z,78.45
2023-03-04T01:37:26.236Z,78.47
2023-03-04T01:39:52.693Z,78.33
2023-03-04T01:42:21.944Z,78.16
2023-03-04T01:44:49.677Z,78.26
2023-03-04T01:47:16.751Z,78.28
2023-03-04T01:49:43.338Z,78.10
2023-03-04T01:52:13.512Z,78.10
2023-03-04T01:54:40.522Z,78.04
2023-03-04T01:57:12.800Z,77.98
2023-03-04T01:59:40.303Z,77.93
2023-03-04T02:02:06.845Z,77.81
2023-03-04T02:04:34.109Z,77.75
2023-03-04T02:07:01.904Z,77.62
2023-03-04T02:09:29.864Z,77.47
2023-03-04T02:11:56.856Z,77.24
2023-03-04T02:14:23.311Z,77.26
2023-03-04T02:16:50.172Z,77.42
2023-03-04T02:19:35.281Z,77.29
2023-03-04T02:22:01.879Z,77.06
2023-03-04T02:24:34.210Z,77.12
2023-03-04T02:27:00.935Z,77.24
2023-03-04T02:29:27.742Z,77.21
2023-03-04T02:31:54.666Z,77.32
2023-03-04T02:34:22.362Z,77.07
2023-03-04T02:36:50.935Z,77.07
2023-03-04T02:39:20.113Z,77.03
2023-03-04T02:41:52.031Z,76.99
2023-03-04T02:44:21.214Z,76.96
2023-03-04T02:46:48.982Z,76.91
2023-03-04T02:49:16.319Z,77.00
2023-03-04T02:51:42.990Z,76.89
2023-03-04T02:54:16.609Z,76.88
2023-03-04T02:56:53.190Z,76.64
2023-03-04T02:59:21.414Z,76.79
2023-03-04T03:01:48.614Z,76.69
2023-03-04T03:04:14.994Z,76.60
2023-03-04T03:06:41.942Z,76.61
2023-03-04T03:09:08.507Z,76.58
2023-03-04T03:11:35.003Z,76.50
2023-03-04T03:14:01.563Z,76.30
2023-03-04T03:16:28.193Z,76.13
2023-03-04T03:18:54.693Z,76.28
2023-03-04T03:21:21.321Z,76.30
2023-03-04T03:23:47.915Z,76.12
2023-03-04T03:26:14.775Z,76.10
2023-03-04T03:28:41.483Z,76.20
2023-03-04T03:31:08.261Z,76.19
2023-03-04T03:33:34.903Z,76.25
2023-03-04T03:36:01.708Z,76.17
2023-03-04T03:38:28.343Z,76.15
2023-03-04T03:40:54.769Z,76.11
2023-03-04T03:43:22.566Z,76.00
2023-03-04T03:45:49.062Z,75.90
2023-03-04T03:48:15.619Z,75.93
2023-03-04T03:50:42.019Z,75.86
2023-03-04T03:53:08.511Z,75.88
2023-03-04T03:55:34.926Z,75.78
2023-03-04T03:58:01.570Z,75.77
2023-03-04T04:00:28.032Z,75.78
2023-03-04T04:02:55.366Z,76.02
2023-03-04T04:05:22.310Z,75.93
2023-03-04T04:07:48.988Z,76.00
2023-03-04T04:10:15.502Z,76.02
2023-03-04T04:12:42.041Z,76.19
2023-03-04T04:15:11.329Z,76.25
2023-03-04T04:17:37.766Z,76.18
2023-03-04T04:20:06.284Z,76.22
2023-03-04T04:22:32.646Z,76.16
2023-03-04T04:24:59.117Z,76.01
2023-03-04T04:27:25.985Z,75.94
2023-03-04T04:29:52.317Z,76.04
2023-03-04T04:32:18.895Z,75.93
2023-03-04T04:34:45.959Z,76.07
2023-03-04T04:37:12.325Z,75.74
2023-03-04T04:39:38.746Z,75.86
2023-03-04T04:42:05.616Z,75.83
2023-03-04T04:44:32.215Z,75.80
2023-03-04T04:46:58.590Z,75.91
2023-03-04T04:49:25.424Z,75.71
2023-03-04T04:51:52.376Z,75.83
2023-03-04T04:54:18.761Z,75.75
2023-03-04T04:56:45.500Z,75.60
2023-03-04T04:59:12.150Z,75.57
2023-03-04T05:01:38.818Z,75.53
2023-03-04T05:04:08.670Z,75.38
2023-03-04T05:06:35.211Z,75.41
2023-03-04T05:09:01.757Z,75.41
2023-03-04T05:11:28.818Z,75.22
2023-03-04T05:13:55.150Z,75.26
2023-03-04T05:16:21.612Z,75.32
2023-03-04T05:18:48.440Z,75.30
2023-03-04T05:21:15.165Z,75.44
2023-03-04T05:23:42.770Z,75.37
2023-03-04T05:26:13.038Z,75.44
2023-03-04T05:28:39.414Z,75.47
2023-03-04T05:31:06.418Z,75.40
2023-03-04T05:33:33.107Z,75.26
2023-03-04T05:35:59.878Z,75.32
2023-03-04T05:38:26.967Z,75.26
2023-03-04T05:40:58.896Z,75.09
2023-03-04T05:43:27.322Z,75.17
2023-03-04T05:45:54.288Z,75.08
2023-03-04T05:48:21.003Z,75.04
2023-03-04T05:50:52.959Z,75.06
2023-03-04T05:53:19.260Z,75.12
2023-03-04T05:55:47.076Z,75.02
2023-03-04T05:58:14.101Z,75.09
2023-03-04T06:00:40.503Z,75.01
2023-03-04T06:03:07.394Z,75.12
2023-03-04T06:05:33.775Z,75.11
2023-03-04T06:08:00.421Z,75.15
2023-03-04T06:10:26.998Z,75.21
2023-03-04T06:12:53.385Z,75.01
2023-03-04T06:15:19.904Z,75.00
2023-03-04T06:17:46.364Z,74.94
2023-03-04T06:20:12.967Z,74.87
2023-03-04T06:22:39.640Z,74.82
2023-03-04T06:25:06.675Z,74.83
2023-03-04T06:27:33.065Z,74.82
2023-03-04T06:30:01.024Z,74.70
2023-03-04T06:32:28.343Z,74.76
2023-03-04T06:34:55.055Z,74.59
2023-03-04T06:37:21.945Z,74.64
2023-03-04T06:39:48.470Z,74.67
2023-03-04T06:42:15.304Z,74.71
2023-03-04T06:44:41.707Z,74.76
2023-03-04T06:47:08.393Z,74.62
2023-03-04T06:49:34.878Z,74.57
2023-03-04T06:52:01.666Z,74.51
2023-03-04T06:54:28.708Z,74.53
2023-03-04T06:56:55.208Z,74.55
2023-03-04T06:59:21.819Z,74.35
2023-03-04T07:01:48.618Z,74.40
2023-03-04T07:04:15.136Z,74.32
2023-03-04T07:06:41.676Z,74.49
2023-03-04T07:09:11.805Z,74.35
2023-03-04T07:11:41.148Z,74.44
2023-03-04T07:14:10.223Z,74.50
2023-03-04T07:16:36.998Z,74.58
2023-03-04T07:19:03.596Z,74.71
2023-03-04T07:21:30.144Z,74.71
2023-03-04T07:23:57.166Z,74.74
2023-03-04T07:26:23.786Z,74.89
2023-03-04T07:28:52.270Z,74.91
2023-03-04T07:31:23.811Z,74.96
2023-03-04T07:33:51.236Z,75.09
2023-03-04T07:36:19.148Z,75.15
2023-03-04T07:38:47.312Z,75.06
2023-03-04T07:41:14.180Z,75.24
2023-03-04T07:43:40.608Z,75.41
2023-03-04T07:46:07.620Z,75.51
2023-03-04T07:48:34.104Z,75.60
2023-03-04T07:51:21.661Z,75.57
2023-03-04T07:53:50.714Z,75.77
2023-03-04T07:56:19.668Z,76.02
2023-03-04T07:58:46.722Z,76.15
2023-03-04T08:01:29.079Z,76.15
2023-03-04T08:03:56.014Z,76.20
2023-03-04T08:06:23.386Z,76.20
2023-03-04T08:08:54.530Z,76.23
2023-03-04T08:11:22.023Z,76.35
2023-03-04T08:13:49.053Z,76.43
2023-03-04T08:16:18.147Z,76.55
2023-03-04T08:18:47.757Z,76.59
2023-03-04T08:21:16.175Z,76.84
2023-03-04T08:23:42.871Z,76.89
2023-03-04T08:26:12.971Z,76.92
2023-03-04T08:28:40.404Z,76.93
2023-03-04T08:31:07.087Z,76.97
2023-03-04T08:33:34.258Z,77.08
2023-03-04T08:36:00.852Z,77.05
2023-03-04T08:38:27.610Z,76.94
2023-03-04T08:40:56.220Z,77.08
2023-03-04T08:43:24.120Z,77.13
2023-03-04T08:45:51.700Z,76.98
2023-03-04T08:48:18.561Z,77.11
2023-03-04T08:50:46.030Z,77.16
2023-03-04T08:53:13.365Z,77.06
2023-03-04T08:55:40.817Z,77.20
2023-03-04T08:58:07.834Z,76.93
2023-03-04T09:00:34.977Z,77.02
2023-03-04T09:03:03.217Z,77.13
2023-03-04T09:05:30.565Z,76.96
2023-03-04T09:07:57.553Z,76.99
2023-03-04T09:10:24.137Z,77.15
2023-03-04T09:12:51.358Z,77.08
2023-03-04T09:15:17.935Z,77.07
2023-03-04T09:17:44.581Z,77.02
2023-03-04T09:20:12.588Z,77.17
2023-03-04T09:22:40.328Z,77.31
2023-03-04T09:25:12.062Z,77.22
2023-03-04T09:27:39.800Z,77.22
2023-03-04T09:30:07.907Z,77.18
2023-03-04T09:32:34.784Z,77.21
2023-03-04T09:35:01.419Z,77.11
2023-03-04T09:37:28.140Z,77.32
2023-03-04T09:39:54.577Z,77.59
2023-03-04T09:42:32.255Z,77.63
2023-03-04T09:44:58.772Z,77.72
2023-03-04T09:47:25.795Z,77.86
2023-03-04T09:50:03.026Z,77.84
2023-03-04T09:52:55.464Z,77.75
2023-03-04T09:55:27.192Z,77.86
2023-03-04T09:58:12.384Z,77.95
2023-03-04T10:00:47.615Z,77.93
2023-03-04T10:03:36.920Z,77.86
2023-03-04T10:06:10.324Z,78.19
2023-03-04T10:08:53.973Z,78.11
2023-03-04T10:11:26.394Z,78.51
2023-03-04T10:14:16.133Z,78.79
2023-03-04T10:16:47.306Z,78.85
2023-03-04T10:19:14.378Z,78.78
2023-03-04T10:21:50.152Z,78.96
2023-03-04T10:24:19.282Z,78.97
2023-03-04T10:26:49.151Z,78.97
2023-03-04T10:29:18.033Z,78.94
2023-03-04T10:31:45.617Z,79.12
2023-03-04T10:34:13.993Z,79.14
2023-03-04T10:36:54.110Z,79.21
2023-03-04T10:39:35.697Z,79.37
2023-03-04T10:42:23.974Z,79.34
2023-03-04T10:44:57.509Z,79.26
2023-03-04T10:47:28.650Z,79.22
2023-03-04T10:49:57.809Z,79.39
2023-03-04T10:52:46.584Z,79.22
2023-03-04T10:55:17.037Z,79.34
2023-03-04T10:57:48.511Z,79.27
2023-03-04T11:00:17.894Z,79.30
2023-03-04T11:02:45.900Z,79.17
2023-03-04T11:05:18.621Z,79.03
2023-03-04T11:07:57.062Z,79.09
2023-03-04T11:10:25.902Z,78.79
2023-03-04T11:13:22.574Z,79.10
2023-03-04T11:15:52.674Z,79.01
2023-03-04T11:18:44.425Z,79.00
2023-03-04T11:21:20.871Z,78.83
2023-03-04T11:23:53.318Z,78.86
2023-03-04T11:26:26.309Z,78.70
2023-03-04T11:29:12.705Z,78.49
2023-03-04T11:31:46.077Z,78.41
2023-03-04T11:34:19.686Z,78.32
2023-03-04T11:37:07.989Z,78.31
2023-03-04T11:39:47.445Z,78.31
2023-03-04T11:42:45.612Z,78.39
2023-03-04T11:45:27.793Z,78.53
2023-03-04T11:48:24.997Z,78.22
2023-03-04T11:50:54.057Z,77.99
2023-03-04T11:53:24.572Z,77.80
2023-03-04T11:56:14.530Z,77.72
2023-03-04T11:59:04.960Z,77.80
2023-03-04T12:02:10.174Z,77.78
2023-03-04T12:04:55.716Z,77.76
2023-03-04T12:07:31.490Z,77.87
2023-03-04T12:09:58.091Z,77.97
2023-03-04T12:12:50.871Z,78.14
2023-03-04T12:15:27.502Z,78.35
2023-03-04T12:18:11.828Z,78.35
2023-03-04T12:20:47.829Z,78.26
2023-03-04T12:23:36.247Z,78.10
2023-03-04T12:26:25.528Z,78.05
2023-03-04T12:29:50.944Z,77.67
2023-03-04T12:32:46.060Z,78.06
2023-03-04T12:35:37.480Z,78.13
2023-03-04T12:38:32.681Z,78.15
2023-03-04T12:41:08.352Z,78.15
2023-03-04T12:44:00.272Z,77.90
2023-03-04T12:46:50.987Z,77.76
2023-03-04T12:49:41.329Z,77.56
2023-03-04T12:52:20.366Z,77.58
2023-03-04T12:54:48.423Z,77.98
2023-03-04T12:57:21.117Z,78.38
2023-03-04T13:00:29.164Z,78.60
2023-03-04T13:03:01.692Z,78.79
2023-03-04T13:05:40.313Z,79.01
2023-03-04T13:08:19.170Z,78.98
2023-03-04T13:10:45.649Z,78.94
2023-03-04T13:13:41.351Z,79.07
2023-03-04T13:16:11.313Z,79.16
2023-03-04T13:18:38.868Z,79.26
2023-03-04T13:21:11.540Z,79.31
2023-03-04T13:23:37.894Z,79.47
2023-03-04T13:26:34.329Z,79.59
2023-03-04T13:29:13.183Z,79.60
2023-03-04T13:31:59.837Z,79.55
2023-03-04T13:34:46.498Z,79.54
2023-03-04T13:37:34.525Z,79.46
2023-03-04T13:40:20.590Z,79.53
2023-03-04T13:42:47.589Z,79.72
2023-03-04T13:45:34.713Z,79.74
2023-03-04T13:48:02.980Z,79.91
2023-03-04T13:50:37.454Z,79.73
2023-03-04T13:53:30.891Z,79.74
2023-03-04T13:56:12.610Z,80.02
2023-03-04T13:58:39.450Z,79.89
2023-03-04T14:01:23.303Z,79.78
2023-03-04T14:03:50.118Z,79.66
2023-03-04T14:06:23.718Z,79.65
2023-03-04T14:08:51.567Z,79.63
2023-03-04T14:11:24.025Z,79.49
2023-03-04T14:13:51.092Z,79.48
2023-03-04T14:16:22.046Z,79.16
2023-03-04T14:19:03.345Z,79.15
2023-03-04T14:21:30.794Z,79.12
2023-03-04T14:24:01.362Z,78.89
2023-03-04T14:26:30.517Z,78.95
2023-03-04T14:28:59.141Z,78.92
2023-03-04T14:31:29.416Z,78.82
2023-03-04T14:34:01.867Z,78.73
2023-03-04T14:36:31.856Z,78.65
2023-03-04T14:39:05.455Z,78.69
2023-03-04T14:41:37.749Z,78.39
2023-03-04T14:44:08.667Z,78.52
2023-03-04T14:47:05.992Z,78.37
2023-03-04T14:49:39.310Z,78.42
2023-03-04T14:52:06.400Z,78.44
2023-03-04T14:54:40.921Z,78.45
2023-03-04T14:57:21.655Z,78.45
2023-03-04T14:59:48.351Z,78.21
2023-03-04T15:02:38.112Z,78.36
2023-03-04T15:05:16.937Z,78.31
2023-03-04T15:08:00.064Z,78.20
2023-03-04T15:10:37.922Z,78.14
2023-03-04T15:13:07.409Z,78.12
2023-03-04T15:15:43.550Z,78.19
2023-03-04T15:18:18.649Z,78.11
2023-03-04T15:21:00.171Z,78.21
2023-03-04T15:23:29.824Z,78.33
2023-03-04T15:25:58.669Z,78.07
2023-03-04T15:28:25.821Z,77.91
2023-03-04T15:30:52.689Z,77.71
2023-03-04T15:33:21.134Z,77.64
2023-03-04T15:35:53.153Z,77.00
2023-03-04T15:38:19.987Z,76.77
2023-03-04T15:40:46.862Z,76.64
2023-03-04T15:43:16.359Z,76.35
2023-03-04T15:45:43.832Z,76.19
2023-03-04T15:48:12.907Z,76.28
2023-03-04T15:50:42.830Z,76.42
2023-03-04T15:53:37.501Z,76.60
2023-03-04T15:56:05.103Z,76.77
2023-03-04T15:58:34.748Z,76.91
2023-03-04T16:01:01.744Z,76.96
2023-03-04T16:03:28.344Z,77.05
2023-03-04T16:05:56.103Z,76.95
2023-03-04T16:08:24.351Z,76.89
2023-03-04T16:10:52.187Z,76.90
2023-03-04T16:13:20.947Z,76.92
2023-03-04T16:15:48.003Z,77.16
2023-03-04T16:18:15.584Z,77.14
2023-03-04T16:20:45.321Z,77.02
2023-03-04T16:23:19.084Z,76.99
2023-03-04T16:25:46.857Z,77.01
2023-03-04T16:28:13.698Z,77.01
2023-03-04T16:30:40.910Z,77.00
2023-03-04T16:33:07.634Z,76.94
2023-03-04T16:35:35.983Z,77.18
2023-03-04T16:38:04.020Z,76.96
2023-03-04T16:40:30.584Z,77.18
2023-03-04T16:42:57.243Z,77.30
2023-03-04T16:45:26.034Z,77.33
2023-03-04T16:47:52.940Z,77.51
2023-03-04T16:50:21.076Z,77.53
2023-03-04T16:52:48.574Z,77.50
2023-03-04T16:55:18.047Z,77.43
2023-03-04T16:57:44.835Z,77.45
2023-03-04T17:00:13.596Z,77.41
2023-03-04T17:02:40.128Z,77.30
2023-03-04T17:05:09.766Z,77.59
2023-03-04T17:07:36.721Z,77.52
2023-03-04T17:10:03.366Z,77.73
2023-03-04T17:12:30.134Z,77.87
2023-03-04T17:14:56.577Z,77.73
2023-03-04T17:17:23.045Z,77.94
2023-03-04T17:19:49.618Z,77.69
2023-03-04T17:22:16.142Z,77.86
2023-03-04T17:24:42.592Z,77.74
2023-03-04T17:27:08.981Z,77.90
2023-03-04T17:29:35.600Z,77.88
2023-03-04T17:32:02.073Z,78.04
2023-03-04T17:34:28.465Z,78.21
2023-03-04T17:36:55.048Z,78.19
2023-03-04T17:39:21.526Z,78.22
2023-03-04T17:41:51.429Z,78.07
2023-03-04T17:44:18.617Z,77.98
2023-03-04T17:46:48.577Z,77.94
2023-03-04T17:49:15.717Z,77.95
2023-03-04T17:51:42.258Z,77.91
2023-03-04T17:54:09.302Z,77.86
2023-03-04T17:56:36.273Z,77.77
2023-03-04T17:59:05.486Z,77.99
2023-03-04T18:01:32.544Z,77.90
2023-03-04T18:03:59.017Z,77.77
2023-03-04T18:06:25.417Z,77.68
2023-03-04T18:08:52.366Z,77.65
2023-03-04T18:11:24.027Z,77.67
2023-03-04T18:13:51.019Z,77.42
2023-03-04T18:16:22.837Z,77.26
2023-03-04T18:18:50.378Z,77.42
2023-03-04T18:21:17.748Z,77.32
2023-03-04T18:23:44.261Z,77.10
2023-03-04T18:26:11.210Z,77.12
2023-03-04T18:28:38.029Z,77.19
2023-03-04T18:31:04.645Z,77.14
2023-03-04T18:33:32.497Z,77.23
2023-03-04T18:36:00.515Z,77.23
2023-03-04T18:38:27.924Z,77.23
2023-03-04T18:41:02.550Z,77.37
2023-03-04T18:43:29.130Z,77.04
2023-03-04T18:45:59.537Z,77.22
2023-03-04T18:48:26.362Z,77.12
2023-03-04T18:50:53.749Z,77.12
2023-03-04T18:53:20.229Z,77.20
2023-03-04T18:55:46.861Z,77.00
2023-03-04T18:58:13.237Z,77.05
2023-03-04T19:00:39.937Z,77.18
2023-03-04T19:03:09.773Z,77.15
2023-03-04T19:05:36.519Z,77.01
2023-03-04T19:08:04.391Z,76.79
2023-03-04T19:10:31.020Z,76.93
2023-03-04T19:12:58.843Z,76.98
2023-03-04T19:15:25.766Z,76.99
2023-03-04T19:17:52.168Z,77.07
2023-03-04T19:20:21.126Z,77.04
2023-03-04T19:22:47.696Z,77.15
2023-03-04T19:25:14.590Z,77.02
2023-03-04T19:27:40.871Z,77.10
2023-03-04T19:30:08.181Z,76.69
2023-03-04T19:32:34.791Z,76.24
2023-03-04T19:35:01.850Z,75.74
2023-03-04T19:37:28.211Z,75.22
2023-03-04T19:39:55.449Z,75.15
2023-03-04T19:42:23.086Z,74.87
2023-03-04T19:44:49.772Z,75.11
2023-03-04T19:47:16.446Z,74.91
2023-03-04T19:49:42.946Z,74.76
2023-03-04T19:52:09.318Z,74.55
2023-03-04T19:54:36.380Z,74.69
2023-03-04T19:57:02.813Z,74.51
2023-03-04T19:59:29.152Z,74.16
2023-03-04T20:01:55.524Z,73.82
2023-03-04T20:04:22.070Z,73.02
2023-03-04T20:06:50.011Z,71.92
2023-03-04T20:09:17.334Z,71.05
2023-03-04T20:11:57.181Z,70.71
2023-03-04T20:14:27.679Z,69.97
2023-03-04T20:16:59.962Z,70.01
2023-03-04T20:19:26.552Z,69.89
2023-03-04T20:21:53.018Z,69.87
2023-03-04T20:24:23.020Z,69.67
2023-03-04T20:26:50.214Z,69.10
2023-03-04T20:29:18.176Z,68.86
2023-03-04T20:31:46.193Z,68.79
2023-03-04T20:34:13.468Z,68.71
2023-03-04T20:36:40.015Z,68.52
2023-03-04T20:39:21.802Z,68.52
2023-03-04T20:41:56.229Z,68.46
2023-03-04T20:44:22.971Z,68.50
2023-03-04T20:46:49.605Z,68.01
2023-03-04T20:49:22.562Z,68.51
2023-03-04T20:51:52.604Z,68.52
2023-03-04T20:54:19.513Z,68.50
2023-03-04T20:56:46.238Z,68.24
2023-03-04T20:59:12.755Z,68.18
2023-03-04T21:01:41.334Z,67.86
2023-03-04T21:04:08.397Z,68.14
2023-03-04T21:06:38.054Z,68.16
2023-03-04T21:09:06.659Z,68.36
2023-03-04T21:11:39.940Z,68.69
2023-03-04T21:14:10.093Z,68.44
2023-03-04T21:16:36.651Z,68.37
2023-03-04T21:19:03.231Z,68.40
2023-03-04T21:21:30.367Z,68.74
2023-03-04T21:23:58.589Z,68.38
2023-03-04T21:26:25.456Z,68.63
2023-03-04T21:28:53.330Z,68.46
2023-03-04T21:31:28.908Z,68.56
2023-03-04T21:33:58.177Z,68.58
2023-03-04T21:36:24.594Z,68.85
2023-03-04T21:38:52.397Z,69.10
2023-03-04T21:41:21.284Z,69.17
2023-03-04T21:43:47.943Z,69.10
2023-03-04T21:46:16.419Z,69.28
2023-03-04T21:48:44.223Z,69.25
2023-03-04T21:51:13.594Z,69.20
2023-03-04T21:53:40.499Z,69.13
2023-03-04T21:56:07.065Z,68.99
2023-03-04T21:58:34.729Z,68.80
2023-03-04T22:01:09.108Z,68.14
2023-03-04T22:03:36.145Z,68.04
2023-03-04T22:06:06.597Z,68.34
2023-03-04T22:08:33.352Z,67.53
2023-03-04T22:11:08.676Z,67.29
2023-03-04T22:13:36.876Z,66.16
2023-03-04T22:16:04.431Z,65.85
2023-03-04T22:18:31.293Z,65.86
2023-03-04T22:21:03.136Z,65.94
2023-03-04T22:23:30.348Z,65.95
2023-03-04T22:26:11.489Z,66.28
2023-03-04T22:28:39.323Z,66.22
2023-03-04T22:31:19.180Z,65.97
2023-03-04T22:33:46.277Z,66.13
2023-03-04T22:36:13.756Z,65.63
2023-03-04T22:38:40.998Z,65.42
2023-03-04T22:41:17.849Z,65.06
2023-03-04T22:43:44.980Z,65.28
2023-03-04T22:46:13.021Z,65.08
2023-03-04T22:48:39.865Z,65.11
2023-03-04T22:51:08.297Z,64.86
2023-03-04T22:53:37.024Z,64.86
2023-03-04T22:56:04.858Z,64.67
2023-03-04T22:58:31.543Z,64.88
2023-03-04T23:00:58.093Z,64.76
2023-03-04T23:03:24.687Z,65.18
2023-03-04T23:06:08.657Z,64.98
2023-03-04T23:08:36.203Z,65.24
2023-03-04T23:11:08.624Z,64.93
2023-03-04T23:13:35.989Z,65.59
2023-03-04T23:16:05.827Z,65.44
2023-03-04T23:18:32.314Z,65.43
2023-03-04T23:20:58.910Z,65.16
2023-03-04T23:23:25.508Z,65.13
2023-03-04T23:25:51.998Z,64.90
2023-03-04T23:28:18.666Z,64.79
2023-03-04T23:30:45.056Z,64.96
2023-03-04T23:33:11.640Z,65.28
2023-03-04T23:35:38.380Z,65.16
2023-03-04T23:38:04.807Z,64.65
2023-03-04T23:40:31.362Z,64.48
2023-03-04T23:42:58.026Z,64.84
2023-03-04T23:45:24.752Z,64.86
2023-03-04T23:47:51.501Z,64.98
2023-03-04T23:50:18.711Z,65.00
2023-03-04T23:52:45.434Z,64.87
2023-03-04T23:55:16.951Z,65.28
2023-03-04T23:57:44.640Z,65.01
